Time;durP1;ratioP1;P1;durP2;ratioP2;P2;SDS_P1;SDS_P2;PMS_P1;PMS_P2;Temp;Humidity;BMP_temperature;BMP_pressure;BME280_temperature;BME280_humidity;BME280_pressure;Samples;Min_cycle;Max_cycle;Signal;HPM_P1;HPM_P2
2023/08/08 00:00:14;;;;;;;0.75;0.60;;;;;;;14.60;100.00;96484.53;5037958;28;20213;-71
2023/08/08 00:02:41;;;;;;;0.68;0.50;;;;;;;14.48;100.00;96478.16;5038317;28;20705;-71
2023/08/08 00:05:08;;;;;;;0.30;0.30;;;;;;;14.37;100.00;96474.22;5037963;28;20229;-71
2023/08/08 00:07:34;;;;;;;2.08;0.88;;;;;;;14.25;100.00;96483.69;5037360;28;20652;-70
2023/08/08 00:10:01;;;;;;;0.95;0.60;;;;;;;14.33;100.00;96482.72;5037862;28;20561;-72
2023/08/08 00:12:27;;;;;;;0.63;0.63;;;;;;;14.00;100.00;96486.94;5037349;28;20229;-71
2023/08/08 00:14:54;;;;;;;0.90;0.50;;;;;;;14.11;100.00;96481.97;5038093;28;20346;-70
2023/08/08 00:17:22;;;;;;;1.23;0.82;;;;;;;14.45;100.00;96486.50;5037368;28;20691;-71
2023/08/08 00:19:48;;;;;;;0.60;0.60;;;;;;;14.23;100.00;96479.59;5037565;28;20373;-71
2023/08/08 00:22:15;;;;;;;0.85;0.52;;;;;;;14.18;100.00;96482.84;5037604;28;20605;-71
2023/08/08 00:24:41;;;;;;;1.23;0.50;;;;;;;14.21;100.00;96479.00;5037666;28;20225;-71
2023/08/08 00:27:08;;;;;;;0.38;0.38;;;;;;;14.17;100.00;96477.75;5037420;28;20197;-70
2023/08/08 00:29:34;;;;;;;2.00;0.80;;;;;;;14.28;100.00;96470.06;5037107;28;20670;-69
2023/08/08 00:32:01;;;;;;;1.50;0.70;;;;;;;14.22;100.00;96476.13;5037351;28;20224;-71
2023/08/08 00:34:29;;;;;;;0.55;0.40;;;;;;;14.41;100.00;96469.31;5037913;28;20205;-71
2023/08/08 00:36:55;;;;;;;1.55;0.80;;;;;;;14.25;100.00;96459.84;5036306;28;20209;-71
2023/08/08 00:39:22;;;;;;;0.80;0.52;;;;;;;14.14;100.00;96462.22;5037926;28;20296;-71
2023/08/08 00:41:48;;;;;;;0.60;0.60;;;;;;;14.23;100.00;96461.88;5037571;28;20236;-71
2023/08/08 00:44:15;;;;;;;0.75;0.68;;;;;;;14.24;100.00;96457.38;5037187;28;20243;-72
2023/08/08 00:46:41;;;;;;;0.50;0.50;;;;;;;14.06;100.00;96460.50;5037629;28;20653;-71
2023/08/08 00:49:08;;;;;;;0.80;0.80;;;;;;;13.96;100.00;96463.69;5037047;28;20209;-71
2023/08/08 00:51:36;;;;;;;0.50;0.50;;;;;;;14.24;100.00;96468.00;5036750;28;20669;-71
2023/08/08 00:54:04;;;;;;;0.60;0.52;;;;;;;14.09;100.00;96467.25;5036822;28;20211;-71
2023/08/08 00:56:30;;;;;;;1.05;0.63;;;;;;;14.09;100.00;96459.31;5037737;28;20209;-71
2023/08/08 00:58:57;;;;;;;0.93;0.50;;;;;;;13.99;100.00;96461.47;5037002;28;20220;-72
2023/08/08 01:01:23;;;;;;;0.55;0.55;;;;;;;14.08;100.00;96465.66;5037405;28;20201;-71
2023/08/08 01:03:52;;;;;;;1.33;0.75;;;;;;;14.13;100.00;96465.88;5037833;28;20227;-69
2023/08/08 01:06:25;;;;;;;0.77;0.70;;;;;;;14.28;100.00;96469.25;5038419;28;20231;-71
2023/08/08 01:08:58;;;;;;;0.90;0.63;;;;;;;14.29;100.00;96463.75;5036243;28;20206;-71
2023/08/08 01:11:26;;;;;;;1.38;0.63;;;;;;;14.20;100.00;96467.56;5037570;28;20247;-71
2023/08/08 01:13:55;;;;;;;0.63;0.50;;;;;;;14.29;100.00;96466.38;5037208;28;20212;-72
2023/08/08 01:16:22;;;;;;;1.63;0.70;;;;;;;14.12;100.00;96465.06;5037304;28;20204;-71
2023/08/08 01:18:50;;;;;;;1.70;0.60;;;;;;;14.20;100.00;96467.56;5036468;28;20213;-71
2023/08/08 01:21:17;;;;;;;0.77;0.57;;;;;;;14.13;100.00;96460.59;5037828;28;20211;-72
2023/08/08 01:23:48;;;;;;;3.38;0.80;;;;;;;14.38;100.00;96459.13;5037189;28;20737;-71
2023/08/08 01:26:17;;;;;;;0.88;0.80;;;;;;;14.44;100.00;96463.66;5037220;28;20224;-71
2023/08/08 01:28:44;;;;;;;1.05;0.63;;;;;;;14.31;100.00;96458.28;5036399;28;20945;-69
2023/08/08 01:31:10;;;;;;;3.95;0.85;;;;;;;14.33;100.00;96456.22;5037085;28;20201;-70
2023/08/08 01:33:38;;;;;;;3.58;0.88;;;;;;;14.42;100.00;96455.06;5037029;28;20235;-72
2023/08/08 01:36:13;;;;;;;1.75;0.77;;;;;;;14.42;100.00;96445.28;5037625;28;20197;-71
2023/08/08 01:38:43;;;;;;;2.33;0.60;;;;;;;14.55;100.00;96441.88;5036502;28;20209;-70
2023/08/08 01:41:09;;;;;;;1.23;1.13;;;;;;;14.46;100.00;96438.56;5036627;28;20205;-72
2023/08/08 01:43:39;;;;;;;1.70;0.80;;;;;;;14.61;100.00;96443.75;5036434;28;20221;-70
2023/08/08 01:46:07;;;;;;;0.60;0.60;;;;;;;14.51;100.00;96437.97;5037149;28;20296;-70
2023/08/08 01:48:33;;;;;;;1.55;0.73;;;;;;;14.44;100.00;96447.75;5035940;28;20201;-72
2023/08/08 01:51:00;;;;;;;1.15;0.70;;;;;;;14.50;100.00;96441.63;5036796;28;20684;-72
2023/08/08 01:53:27;;;;;;;2.28;0.80;;;;;;;14.42;100.00;96437.34;5036790;28;20225;-71
2023/08/08 01:55:53;;;;;;;1.35;0.95;;;;;;;14.37;100.00;96441.56;5036613;28;20204;-70
2023/08/08 01:58:20;;;;;;;4.13;0.73;;;;;;;14.45;100.00;96434.28;5036068;28;20213;-71
2023/08/08 02:00:48;;;;;;;0.80;0.70;;;;;;;14.62;100.00;96435.59;5037144;28;20209;-71
2023/08/08 02:03:15;;;;;;;6.63;0.70;;;;;;;14.47;100.00;96429.59;5036362;28;20217;-72
2023/08/08 02:05:41;;;;;;;1.10;0.70;;;;;;;14.46;100.00;96425.31;5036433;28;20221;-71
2023/08/08 02:08:08;;;;;;;1.63;0.73;;;;;;;14.45;100.00;96428.16;5036576;28;20207;-72
2023/08/08 02:10:34;;;;;;;1.17;0.85;;;;;;;14.35;100.00;96419.75;5035993;28;20582;-72
2023/08/08 02:13:01;;;;;;;0.60;0.60;;;;;;;14.36;100.00;96422.19;5035799;28;20227;-72
2023/08/08 02:15:27;;;;;;;0.85;0.60;;;;;;;14.31;100.00;96421.16;5036647;28;20213;-71
2023/08/08 02:17:55;;;;;;;0.68;0.65;;;;;;;14.52;100.00;96413.91;5036385;28;20205;-71
2023/08/08 02:20:21;;;;;;;1.40;0.68;;;;;;;14.34;100.00;96418.91;5036489;28;20205;-71
2023/08/08 02:22:48;;;;;;;0.88;0.70;;;;;;;14.32;100.00;96428.06;5036165;28;20235;-72
2023/08/08 02:25:14;;;;;;;0.98;0.60;;;;;;;14.35;100.00;96417.91;5036488;28;20221;-71
2023/08/08 02:27:41;;;;;;;1.20;0.63;;;;;;;14.51;100.00;96422.06;5035867;28;20205;-71
2023/08/08 02:30:09;;;;;;;0.90;0.70;;;;;;;14.61;100.00;96422.53;5036426;28;20220;-71
2023/08/08 02:32:35;;;;;;;0.98;0.88;;;;;;;14.52;100.00;96429.81;5036210;28;20776;-71
2023/08/08 02:35:03;;;;;;;1.05;0.60;;;;;;;14.69;100.00;96425.84;5033972;28;20205;-71
2023/08/08 02:37:30;;;;;;;0.90;0.70;;;;;;;14.51;100.00;96430.00;5035671;28;20205;-70
2023/08/08 02:39:56;;;;;;;0.77;0.57;;;;;;;14.55;100.00;96420.66;5036685;28;20250;-70
2023/08/08 02:42:23;;;;;;;3.55;0.63;;;;;;;14.61;100.00;96425.19;5036462;28;21271;-70
2023/08/08 02:44:50;;;;;;;0.63;0.63;;;;;;;14.62;100.00;96424.16;5036097;28;20217;-72
2023/08/08 02:47:16;;;;;;;0.95;0.60;;;;;;;14.63;100.00;96431.94;5035990;28;20204;-72
2023/08/08 02:49:43;;;;;;;0.50;0.50;;;;;;;14.55;100.00;96433.91;5036143;28;20205;-71
2023/08/08 02:52:10;;;;;;;1.77;1.23;;;;;;;14.75;100.00;96423.22;5036157;28;20221;-72
2023/08/08 02:54:37;;;;;;;1.73;0.65;;;;;;;14.46;100.00;96427.13;5037714;28;20205;-71
2023/08/08 02:57:04;;;;;;;0.45;0.45;;;;;;;14.54;100.00;96430.44;5040328;28;20205;-72
2023/08/08 02:59:31;;;;;;;1.85;0.77;;;;;;;14.59;100.00;96422.72;5039971;28;20288;-70
2023/08/08 03:01:57;;;;;;;0.88;0.60;;;;;;;14.61;100.00;96423.34;5039965;28;20595;-71
2023/08/08 03:04:24;;;;;;;4.65;0.80;;;;;;;14.62;100.00;96418.88;5040333;28;20583;-72
2023/08/08 03:06:50;;;;;;;0.85;0.60;;;;;;;14.64;100.00;96413.16;5039510;28;20720;-71
2023/08/08 03:09:18;;;;;;;9.10;0.70;;;;;;;14.74;100.00;96410.97;5039786;28;20205;-72
2023/08/08 03:11:45;;;;;;;1.45;1.17;;;;;;;14.65;100.00;96416.66;5039947;28;20225;-71
2023/08/08 03:14:11;;;;;;;1.63;1.15;;;;;;;14.54;100.00;96416.38;5039630;28;20229;-71
2023/08/08 03:16:38;;;;;;;0.77;0.50;;;;;;;14.64;100.00;96409.69;5039765;28;20197;-72
2023/08/08 03:19:04;;;;;;;2.15;0.68;;;;;;;14.68;100.00;96403.78;5039633;28;20227;-70
2023/08/08 03:21:31;;;;;;;1.13;0.60;;;;;;;14.73;100.00;96406.66;5039359;28;20223;-70
2023/08/08 03:23:58;;;;;;;0.50;0.50;;;;;;;14.67;100.00;96401.34;5039500;28;20205;-70
2023/08/08 03:26:26;;;;;;;0.82;0.70;;;;;;;14.75;100.00;96409.13;5040324;28;20225;-72
2023/08/08 03:28:53;;;;;;;0.55;0.55;;;;;;;14.63;100.00;96408.84;5039059;28;20212;-72
2023/08/08 03:31:20;;;;;;;0.70;0.70;;;;;;;14.59;100.00;96408.63;5039137;28;20228;-70
2023/08/08 03:33:47;;;;;;;1.45;0.50;;;;;;;14.57;100.00;96408.03;5038693;28;21326;-70
2023/08/08 03:36:14;;;;;;;0.30;0.30;;;;;;;14.67;100.00;96410.09;5040473;28;20235;-71
2023/08/08 03:38:44;;;;;;;0.70;0.65;;;;;;;14.75;100.00;96409.13;5038553;28;20205;-71
2023/08/08 03:41:10;;;;;;;0.63;0.57;;;;;;;14.63;100.00;96406.22;5039403;28;20905;-71
2023/08/08 03:43:38;;;;;;;1.83;0.73;;;;;;;14.84;100.00;96402.63;5039221;28;20233;-71
2023/08/08 03:46:05;;;;;;;1.13;0.70;;;;;;;14.72;100.00;96401.56;5039512;28;20247;-70
2023/08/08 03:48:31;;;;;;;1.13;0.60;;;;;;;14.66;100.00;96405.84;5038312;28;21270;-69
2023/08/08 03:50:58;;;;;;;0.85;0.70;;;;;;;14.63;100.00;96399.28;5039050;28;20209;-70
2023/08/08 03:53:24;;;;;;;2.30;0.90;;;;;;;14.69;100.00;96407.28;5039543;28;20221;-71
2023/08/08 03:55:51;;;;;;;2.38;0.63;;;;;;;14.55;100.00;96410.03;5039196;28;20201;-70
2023/08/08 03:58:18;;;;;;;2.00;1.00;;;;;;;14.62;100.00;96402.94;5038158;28;20212;-69
2023/08/08 04:00:46;;;;;;;1.02;0.93;;;;;;;14.65;100.00;96404.19;5039183;28;20211;-70
2023/08/08 04:03:14;;;;;;;0.50;0.40;;;;;;;14.66;100.00;96405.00;5039219;28;20645;-70
2023/08/08 04:05:40;;;;;;;1.60;1.00;;;;;;;14.45;100.00;96415.72;5038275;28;21171;-70
2023/08/08 04:08:07;;;;;;;0.70;0.57;;;;;;;14.40;100.00;96412.03;5038779;28;20207;-69
2023/08/08 04:10:33;;;;;;;1.25;0.80;;;;;;;14.45;100.00;96414.91;5038559;28;20216;-69
2023/08/08 04:13:00;;;;;;;1.00;0.65;;;;;;;14.50;100.00;96420.41;5038162;28;20224;-69
2023/08/08 04:15:26;;;;;;;3.03;0.60;;;;;;;14.45;100.00;96421.03;5038885;28;20201;-70
2023/08/08 04:17:54;;;;;;;0.88;0.50;;;;;;;14.58;100.00;96430.88;5038154;28;20205;-69
2023/08/08 04:20:21;;;;;;;0.90;0.65;;;;;;;14.37;100.00;96425.66;5038405;28;20292;-69
2023/08/08 04:22:47;;;;;;;1.42;0.68;;;;;;;14.35;100.00;96425.03;5038265;28;20225;-69
2023/08/08 04:25:15;;;;;;;0.70;0.50;;;;;;;14.42;100.00;96428.53;5038382;28;20209;-69
2023/08/08 04:27:42;;;;;;;0.63;0.50;;;;;;;14.19;100.00;96428.00;5037269;28;20212;-69
2023/08/08 04:30:09;;;;;;;1.77;0.73;;;;;;;14.32;100.00;96436.03;5038152;28;20203;-70
2023/08/08 04:32:36;;;;;;;3.95;1.00;;;;;;;14.23;100.00;96437.19;5038301;28;20232;-69
2023/08/08 04:35:04;;;;;;;0.75;0.52;;;;;;;14.37;100.00;96436.25;5037847;28;20201;-69
2023/08/08 04:37:31;;;;;;;0.95;0.60;;;;;;;14.21;100.00;96432.09;5036994;28;20212;-70
2023/08/08 04:39:57;;;;;;;1.23;0.85;;;;;;;14.31;100.00;96437.06;5038797;28;20197;-70
2023/08/08 04:42:24;;;;;;;0.77;0.65;;;;;;;14.34;100.00;96426.06;5037681;28;20217;-70
2023/08/08 04:44:50;;;;;;;1.08;0.50;;;;;;;14.39;100.00;96431.59;5037895;28;20548;-69
2023/08/08 04:47:17;;;;;;;0.75;0.63;;;;;;;14.32;100.00;96433.38;5038702;28;20303;-69
2023/08/08 04:49:43;;;;;;;1.25;0.77;;;;;;;14.44;100.00;96434.47;5037801;28;20209;-69
2023/08/08 04:52:11;;;;;;;0.30;0.30;;;;;;;14.67;100.00;96439.28;5038099;28;20231;-69
2023/08/08 04:54:38;;;;;;;0.65;0.52;;;;;;;14.65;100.00;96430.72;5038478;28;20235;-70
2023/08/08 04:57:05;;;;;;;0.95;0.70;;;;;;;14.68;100.00;96425.00;5037527;28;20193;-69
2023/08/08 04:59:31;;;;;;;0.70;0.55;;;;;;;14.75;100.00;96425.03;5037213;28;20579;-69
2023/08/08 05:01:58;;;;;;;1.25;0.52;;;;;;;14.75;100.00;96425.88;5038156;28;20946;-70
2023/08/08 05:04:24;;;;;;;0.52;0.52;;;;;;;14.83;100.00;96428.34;5037469;28;20688;-69
2023/08/08 05:06:51;;;;;;;0.50;0.40;;;;;;;14.81;100.00;96427.72;5037965;28;20225;-69
2023/08/08 05:09:20;;;;;;;0.90;0.68;;;;;;;14.99;100.00;96422.66;5037606;28;20695;-69
2023/08/08 05:11:47;;;;;;;1.10;0.60;;;;;;;14.86;100.00;96419.97;5037161;28;20755;-69
2023/08/08 05:14:13;;;;;;;0.45;0.45;;;;;;;14.88;100.00;96428.56;5037380;28;20206;-69
2023/08/08 05:16:40;;;;;;;1.95;0.60;;;;;;;14.91;100.00;96417.53;5037101;28;20197;-69
2023/08/08 05:19:06;;;;;;;2.13;0.70;;;;;;;14.99;100.00;96414.72;5036123;28;20795;-69
2023/08/08 05:21:33;;;;;;;0.50;0.50;;;;;;;15.24;100.00;96419.31;5038452;28;20316;-69
2023/08/08 05:24:00;;;;;;;0.60;0.60;;;;;;;15.21;100.00;96418.91;5037773;28;20204;-70
2023/08/08 05:26:28;;;;;;;1.70;0.70;;;;;;;15.43;100.00;96412.41;5037051;28;20747;-70
2023/08/08 05:28:54;;;;;;;1.25;0.60;;;;;;;15.54;100.00;96420.59;5036621;28;20581;-69
2023/08/08 05:31:21;;;;;;;0.85;0.60;;;;;;;15.65;100.00;96419.97;5037528;28;20214;-69
2023/08/08 05:33:49;;;;;;;0.52;0.50;;;;;;;15.84;100.00;96429.81;5036910;28;20232;-69
2023/08/08 05:36:16;;;;;;;0.55;0.45;;;;;;;15.65;100.00;96425.28;5037236;28;20205;-69
2023/08/08 05:38:42;;;;;;;1.20;0.52;;;;;;;15.77;100.00;96422.84;5036456;28;20211;-68
2023/08/08 05:41:09;;;;;;;1.77;1.10;;;;;;;15.78;100.00;96411.19;5037402;28;21262;-69
2023/08/08 05:43:37;;;;;;;0.30;0.30;;;;;;;15.90;100.00;96421.81;5036789;28;20237;-70
2023/08/08 05:46:03;;;;;;;0.95;0.40;;;;;;;15.47;100.00;96418.94;5036764;28;20343;-68
2023/08/08 05:48:30;;;;;;;0.98;0.90;;;;;;;15.19;100.00;96414.78;5036320;28;20270;-69
2023/08/08 05:50:58;;;;;;;0.57;0.57;;;;;;;15.36;100.00;96414.22;5037242;28;20241;-70
2023/08/08 05:53:25;;;;;;;0.77;0.52;;;;;;;15.48;100.00;96415.28;5036853;28;20244;-69
2023/08/08 05:55:51;;;;;;;0.82;0.63;;;;;;;15.32;100.00;96418.31;5036850;28;20209;-69
2023/08/08 05:58:18;;;;;;;0.50;0.50;;;;;;;15.41;100.00;96417.94;5035818;28;20207;-69
2023/08/08 06:00:46;;;;;;;0.40;0.40;;;;;;;15.70;100.00;96427.34;5035177;28;20204;-69
2023/08/08 06:03:12;;;;;;;1.17;0.70;;;;;;;15.81;100.00;96424.06;5034392;28;20700;-69
2023/08/08 06:05:39;;;;;;;0.70;0.50;;;;;;;15.52;100.00;96419.16;5034704;28;21259;-69
2023/08/08 06:08:11;;;;;;;0.88;0.50;;;;;;;15.72;100.00;96425.28;5034316;28;20197;-69
2023/08/08 06:10:37;;;;;;;0.45;0.45;;;;;;;15.66;100.00;96424.28;5034955;28;20205;-69
2023/08/08 06:13:05;;;;;;;0.60;0.57;;;;;;;15.77;100.00;96418.38;5034253;28;20217;-69
2023/08/08 06:15:31;;;;;;;1.27;0.40;;;;;;;15.77;100.00;96422.84;5034660;28;20209;-69
2023/08/08 06:18:00;;;;;;;0.57;0.40;;;;;;;15.96;100.00;96418.34;5028548;28;20472;-69
2023/08/08 06:20:28;;;;;;;0.40;0.40;;;;;;;16.12;100.00;96420.56;5030348;28;20201;-68
2023/08/08 06:22:55;;;;;;;0.80;0.45;;;;;;;16.08;100.00;96415.91;5031255;28;20253;-71
2023/08/08 06:25:21;;;;;;;0.70;0.40;;;;;;;16.26;100.00;96416.91;5033786;28;20202;-69
2023/08/08 06:27:49;;;;;;;1.75;0.60;;;;;;;16.32;100.00;96416.09;5032220;28;20227;-69
2023/08/08 06:30:16;;;;;;;1.20;0.95;;;;;;;16.37;100.00;96412.78;5034674;28;20332;-69
2023/08/08 06:32:42;;;;;;;1.42;0.85;;;;;;;16.55;100.00;96414.59;5034136;28;20237;-70
2023/08/08 06:35:11;;;;;;;1.02;0.70;;;;;;;16.89;100.00;96414.28;5033995;28;20296;-69
2023/08/08 06:37:38;;;;;;;0.40;0.40;;;;;;;16.50;100.00;96421.56;5033408;28;20205;-69
2023/08/08 06:40:07;;;;;;;0.52;0.50;;;;;;;16.68;100.00;96421.72;5035318;28;20197;-69
2023/08/08 06:42:33;;;;;;;1.17;0.70;;;;;;;16.14;100.00;96421.19;5034961;28;20225;-68
2023/08/08 06:45:00;;;;;;;0.63;0.45;;;;;;;16.28;100.00;96417.53;5034858;28;20205;-69
2023/08/08 06:47:26;;;;;;;0.40;0.40;;;;;;;16.18;100.00;96417.09;5034191;28;20225;-69
2023/08/08 06:49:53;;;;;;;0.32;0.30;;;;;;;16.15;100.00;96416.69;5034912;28;20201;-69
2023/08/08 06:52:22;;;;;;;0.52;0.38;;;;;;;16.44;100.00;96406.44;5034496;28;20229;-69
2023/08/08 06:54:49;;;;;;;0.88;0.57;;;;;;;16.61;100.00;96403.13;5034458;28;20208;-69
2023/08/08 06:57:15;;;;;;;0.85;0.70;;;;;;;16.63;100.00;96400.25;5034485;28;20808;-69
2023/08/08 06:59:42;;;;;;;0.50;0.40;;;;;;;16.80;100.00;96390.75;5034744;28;20209;-69
2023/08/08 07:02:09;;;;;;;0.65;0.47;;;;;;;17.01;100.00;96387.81;5034292;28;20217;-69
2023/08/08 07:04:36;;;;;;;7.32;1.38;;;;;;;17.16;100.00;96387.28;5035416;28;20232;-69
2023/08/08 07:07:03;;;;;;;0.22;0.22;;;;;;;17.02;100.00;96389.41;5034689;28;20224;-69
2023/08/08 07:09:31;;;;;;;0.40;0.40;;;;;;;17.38;100.00;96390.47;5034401;28;20219;-69
2023/08/08 07:11:57;;;;;;;0.38;0.35;;;;;;;17.26;100.00;96387.69;5035401;28;20303;-69
2023/08/08 07:14:24;;;;;;;0.73;0.50;;;;;;;17.40;100.00;96386.56;5036027;28;20209;-69
2023/08/08 07:16:51;;;;;;;1.25;0.63;;;;;;;17.48;100.00;96383.63;5029410;28;20308;-69
2023/08/08 07:19:18;;;;;;;0.65;0.55;;;;;;;17.47;100.00;96387.31;5032375;28;20677;-69
2023/08/08 07:21:46;;;;;;;0.38;0.30;;;;;;;17.68;99.06;96383.50;5033627;28;20254;-69
2023/08/08 07:24:13;;;;;;;0.52;0.47;;;;;;;17.76;96.79;96384.84;5033276;28;20205;-70
2023/08/08 07:26:41;;;;;;;0.65;0.65;;;;;;;17.84;97.34;96386.44;5033307;28;21116;-69
2023/08/08 07:29:07;;;;;;;0.50;0.40;;;;;;;17.92;99.25;96378.16;5031906;28;20202;-69
2023/08/08 07:31:34;;;;;;;3.95;0.57;;;;;;;18.10;94.11;96387.03;5033637;28;20205;-70
2023/08/08 07:34:01;;;;;;;0.93;0.50;;;;;;;18.25;93.50;96378.69;5033439;28;20275;-70
2023/08/08 07:36:28;;;;;;;0.50;0.50;;;;;;;18.23;94.71;96372.75;5033396;28;20193;-69
2023/08/08 07:38:59;;;;;;;0.77;0.50;;;;;;;18.26;96.45;96381.16;5031864;28;20197;-70
2023/08/08 07:41:26;;;;;;;1.00;0.85;;;;;;;18.21;95.15;96377.50;5035518;28;20227;-69
2023/08/08 07:43:54;;;;;;;0.30;0.30;;;;;;;18.76;92.25;96374.63;5036971;28;20193;-69
2023/08/08 07:46:20;;;;;;;0.25;0.25;;;;;;;18.32;93.42;96376.75;5036731;28;20220;-69
2023/08/08 07:48:47;;;;;;;0.52;0.52;;;;;;;18.23;92.63;96368.25;5035543;28;20205;-69
2023/08/08 07:51:13;;;;;;;3.28;0.60;;;;;;;18.66;92.37;96367.16;5036105;28;20201;-69
2023/08/08 07:53:40;;;;;;;8.13;0.90;;;;;;;18.88;88.41;96365.66;5037119;28;20598;-70
2023/08/08 07:56:07;;;;;;;0.45;0.30;;;;;;;19.16;88.67;96364.06;5037025;28;20203;-69
2023/08/08 07:58:33;;;;;;;0.40;0.40;;;;;;;19.00;86.96;96367.34;5035922;28;20198;-69
2023/08/08 08:01:01;;;;;;;0.50;0.50;;;;;;;18.96;85.96;96362.66;5036367;28;21173;-69
2023/08/08 08:03:28;;;;;;;0.52;0.50;;;;;;;19.25;87.44;96362.69;5036934;28;20228;-69
2023/08/08 08:05:55;;;;;;;0.60;0.60;;;;;;;19.18;87.22;96366.50;5036923;28;20224;-69
2023/08/08 08:08:21;;;;;;;0.75;0.65;;;;;;;19.32;86.37;96362.59;5036782;28;20239;-70
2023/08/08 08:10:48;;;;;;;0.32;0.32;;;;;;;19.05;87.33;96359.47;5037205;28;20209;-69
2023/08/08 08:13:15;;;;;;;0.45;0.45;;;;;;;19.21;84.94;96366.06;5037625;28;20225;-69
2023/08/08 08:15:41;;;;;;;0.55;0.45;;;;;;;19.19;83.52;96362.78;5037224;28;20205;-70
2023/08/08 08:18:11;;;;;;;0.77;0.45;;;;;;;19.58;86.91;96355.00;5036834;28;20224;-70
2023/08/08 08:20:37;;;;;;;1.48;0.68;;;;;;;19.39;84.86;96344.63;5036848;28;20681;-70
2023/08/08 08:23:04;;;;;;;1.02;0.70;;;;;;;19.71;85.50;96342.22;5037513;28;20232;-70
2023/08/08 08:25:32;;;;;;;0.47;0.40;;;;;;;19.69;81.99;96352.38;5037246;28;20205;-69
2023/08/08 08:27:58;;;;;;;0.40;0.40;;;;;;;19.50;82.29;96349.19;5036397;28;20271;-69
2023/08/08 08:30:26;;;;;;;1.13;1.02;;;;;;;19.48;81.10;96352.09;5036572;28;20205;-69
2023/08/08 08:32:53;;;;;;;1.98;0.70;;;;;;;19.72;81.75;96359.91;5037091;28;20239;-69
2023/08/08 08:35:21;;;;;;;1.13;0.70;;;;;;;19.69;80.14;96348.84;5036614;28;20201;-69
2023/08/08 08:37:48;;;;;;;0.85;0.68;;;;;;;19.98;79.98;96348.00;5034439;28;20201;-69
2023/08/08 08:40:15;;;;;;;6.85;0.65;;;;;;;20.12;80.45;96349.41;5035169;28;20211;-69
2023/08/08 08:42:43;;;;;;;0.22;0.22;;;;;;;20.13;77.30;96346.50;5036381;28;20233;-69
2023/08/08 08:45:10;;;;;;;1.80;0.60;;;;;;;20.35;77.84;96347.50;5035789;28;20197;-70
2023/08/08 08:47:37;;;;;;;0.55;0.55;;;;;;;20.09;75.97;96334.63;5034900;28;20217;-69
2023/08/08 08:50:05;;;;;;;3.13;0.45;;;;;;;20.27;76.04;96337.19;5035303;28;20203;-69
2023/08/08 08:52:33;;;;;;;2.05;1.13;;;;;;;20.64;76.52;96327.81;5035094;28;20225;-69
2023/08/08 08:55:00;;;;;;;0.93;0.68;;;;;;;20.85;77.36;96339.53;5036758;28;20213;-69
2023/08/08 08:57:27;;;;;;;0.52;0.52;;;;;;;20.50;72.20;96332.59;5035465;28;20189;-70
2023/08/08 08:59:53;;;;;;;0.77;0.50;;;;;;;20.96;73.93;96322.63;5034986;28;21096;-69
2023/08/08 09:02:20;;;;;;;0.47;0.40;;;;;;;21.12;73.29;96332.56;5035005;28;20231;-70
2023/08/08 09:04:47;;;;;;;1.95;0.63;;;;;;;21.38;72.52;96326.59;5036545;28;20735;-70
2023/08/08 09:07:15;;;;;;;1.92;0.50;;;;;;;21.24;70.03;96322.59;5035161;28;20227;-69
2023/08/08 09:09:44;;;;;;;0.50;0.47;;;;;;;21.31;71.49;96334.00;5036194;28;20756;-69
2023/08/08 09:12:12;;;;;;;0.52;0.50;;;;;;;21.17;71.80;96329.19;5033315;28;20229;-70
2023/08/08 09:14:41;;;;;;;0.50;0.50;;;;;;;21.23;71.10;96330.88;5035049;28;20232;-70
2023/08/08 09:17:11;;;;;;;1.40;0.50;;;;;;;21.09;70.51;96314.28;5035304;28;20209;-69
2023/08/08 09:19:38;;;;;;;0.73;0.70;;;;;;;21.00;71.95;96320.25;5036042;28;20201;-70
2023/08/08 09:22:05;;;;;;;0.47;0.43;;;;;;;21.16;72.34;96322.19;5035512;28;20221;-69
2023/08/08 09:24:32;;;;;;;0.85;0.60;;;;;;;21.18;72.51;96326.25;5035497;28;20763;-70
2023/08/08 09:27:00;;;;;;;1.85;0.65;;;;;;;21.45;68.96;96332.63;5034629;28;20201;-69
2023/08/08 09:29:28;;;;;;;0.20;0.20;;;;;;;21.22;67.54;96322.03;5032267;28;20692;-69
2023/08/08 09:31:54;;;;;;;0.52;0.50;;;;;;;21.42;70.82;96322.38;5035115;28;20882;-69
2023/08/08 09:34:25;;;;;;;0.75;0.52;;;;;;;21.50;72.54;96327.38;5032345;28;20201;-70
2023/08/08 09:36:52;;;;;;;1.35;0.70;;;;;;;21.19;70.81;96319.81;5035762;28;20287;-69
2023/08/08 09:39:19;;;;;;;1.63;0.50;;;;;;;20.80;69.14;96324.41;5035010;28;20223;-69
2023/08/08 09:41:47;;;;;;;0.98;0.45;;;;;;;20.86;68.47;96316.22;5035732;28;20311;-69
2023/08/08 09:44:15;;;;;;;0.50;0.50;;;;;;;20.95;68.65;96321.00;5035525;28;20209;-70
2023/08/08 09:46:42;;;;;;;0.80;0.65;;;;;;;21.05;70.60;96323.03;5035723;28;20205;-70
2023/08/08 09:49:11;;;;;;;0.73;0.60;;;;;;;21.28;68.98;96325.59;5034379;28;20303;-70
2023/08/08 09:51:37;;;;;;;0.73;0.50;;;;;;;21.42;66.38;96311.66;5035415;28;20302;-69
2023/08/08 09:54:06;;;;;;;0.75;0.60;;;;;;;21.94;68.16;96310.41;5035886;28;20201;-70
2023/08/08 09:56:34;;;;;;;0.60;0.57;;;;;;;22.20;68.57;96302.50;5035932;28;20220;-70
2023/08/08 09:59:02;;;;;;;0.50;0.50;;;;;;;22.48;65.38;96292.44;5033955;28;20207;-70
2023/08/08 10:01:30;;;;;;;0.40;0.40;;;;;;;22.29;64.87;96306.41;5035069;28;20217;-69
2023/08/08 10:03:58;;;;;;;0.65;0.63;;;;;;;21.90;65.39;96317.31;5034540;28;20197;-69
2023/08/08 10:06:25;;;;;;;1.05;0.60;;;;;;;21.85;64.25;96311.88;5036016;28;20211;-68
2023/08/08 10:08:52;;;;;;;4.38;0.77;;;;;;;22.14;68.00;96298.91;5034646;28;20221;-69
2023/08/08 10:11:20;;;;;;;0.75;0.52;;;;;;;22.21;64.78;96307.63;5034367;28;20757;-70
2023/08/08 10:13:51;;;;;;;0.43;0.35;;;;;;;22.31;63.45;96310.47;5034557;28;20225;-70
2023/08/08 10:16:18;;;;;;;5.47;1.00;;;;;;;22.26;62.51;96298.84;5034894;28;20725;-69
2023/08/08 10:18:47;;;;;;;0.55;0.50;;;;;;;22.79;65.15;96291.75;5034231;28;20201;-70
2023/08/08 10:21:14;;;;;;;0.80;0.60;;;;;;;22.43;63.07;96297.75;5035172;28;20201;-69
2023/08/08 10:23:40;;;;;;;1.13;0.80;;;;;;;22.44;58.87;96295.84;5034826;28;20320;-69
2023/08/08 10:26:19;;;;;;;0.50;0.50;;;;;;;22.55;61.11;96298.44;5034602;28;20207;-69
2023/08/08 10:28:54;;;;;;;0.57;0.50;;;;;;;22.65;61.41;96282.44;5034412;28;20239;-69
2023/08/08 10:31:22;;;;;;;0.93;0.40;;;;;;;22.46;60.38;96288.38;5035065;28;20205;-70
2023/08/08 10:33:50;;;;;;;2.95;0.70;;;;;;;22.38;61.02;96288.81;5034629;28;20228;-69
2023/08/08 10:36:17;;;;;;;0.47;0.43;;;;;;;22.37;61.28;96285.31;5034316;28;20216;-69
2023/08/08 10:38:46;;;;;;;2.05;0.85;;;;;;;22.33;60.28;96284.19;5033993;28;20920;-69
2023/08/08 10:41:15;;;;;;;0.90;0.57;;;;;;;22.46;59.61;96278.44;5034362;28;20251;-69
2023/08/08 10:43:50;;;;;;;0.80;0.60;;;;;;;22.91;57.46;96276.28;5034938;28;20253;-69
2023/08/08 10:46:24;;;;;;;0.30;0.30;;;;;;;22.74;57.35;96275.56;5034688;28;20208;-69
2023/08/08 10:48:54;;;;;;;3.97;0.55;;;;;;;22.42;58.58;96269.25;5033718;28;20224;-69
2023/08/08 10:51:21;;;;;;;1.10;0.40;;;;;;;22.04;58.39;96269.22;5032412;28;20197;-69
2023/08/08 10:53:51;;;;;;;1.02;0.77;;;;;;;22.31;59.40;96259.47;5034118;28;20320;-69
2023/08/08 10:56:20;;;;;;;0.82;0.32;;;;;;;22.82;58.98;96261.69;5034404;28;20197;-68
2023/08/08 10:58:50;;;;;;;0.47;0.47;;;;;;;22.90;57.67;96270.13;5033828;28;20733;-69
2023/08/08 11:01:17;;;;;;;0.88;0.50;;;;;;;22.62;56.83;96261.47;5034600;28;20211;-69
2023/08/08 11:03:44;;;;;;;0.75;0.75;;;;;;;22.01;57.32;96263.56;5034581;28;20229;-69
2023/08/08 11:06:12;;;;;;;11.20;0.70;;;;;;;22.44;59.08;96260.94;5034765;28;20294;-69
2023/08/08 11:08:39;;;;;;;0.40;0.40;;;;;;;22.02;58.26;96261.69;5033832;28;20298;-69
2023/08/08 11:11:06;;;;;;;0.40;0.30;;;;;;;22.76;57.81;96260.03;5035042;28;20207;-69
2023/08/08 11:13:33;;;;;;;5.93;1.00;;;;;;;23.11;57.19;96260.41;5034806;28;20736;-69
2023/08/08 11:16:01;;;;;;;1.85;0.65;;;;;;;22.89;57.16;96257.72;5036878;28;20211;-69
2023/08/08 11:18:28;;;;;;;0.65;0.57;;;;;;;22.77;56.88;96269.69;5036999;28;21110;-69
2023/08/08 11:20:55;;;;;;;0.65;0.50;;;;;;;22.72;57.60;96262.38;5038574;28;21137;-69
2023/08/08 11:23:23;;;;;;;4.70;0.95;;;;;;;23.04;58.18;96259.78;5038283;28;20225;-69
2023/08/08 11:25:50;;;;;;;0.40;0.40;;;;;;;23.25;55.59;96257.06;5037910;28;20205;-69
2023/08/08 11:28:17;;;;;;;4.28;1.00;;;;;;;22.96;55.42;96266.44;5037023;28;20224;-69